sensor_id;sensor_type;location;lat;lon;timestamp;P1;durP1;ratioP1;P2;durP2;ratioP2
48403;SDS011;34202;52.536;6.042;2022-11-11T00:00:19;14.20;;;7.40;;
48403;SDS011;34202;52.536;6.042;2022-11-11T00:05:21;16.80;;;7.70;;
48403;SDS011;34202;52.536;6.042;2022-11-11T00:10:22;15.00;;;8.00;;
48403;SDS011;34202;52.536;6.042;2022-11-11T00:15:23;12.80;;;8.40;;
48403;SDS011;34202;52.536;6.042;2022-11-11T00:20:23;13.00;;;7.90;;
48403;SDS011;34202;52.536;6.042;2022-11-11T00:25:42;11.60;;;7.90;;
48403;SDS011;34202;52.536;6.042;2022-11-11T00:30:42;17.30;;;9.20;;
48403;SDS011;34202;52.536;6.042;2022-11-11T00:35:42;15.40;;;8.60;;
48403;SDS011;34202;52.536;6.042;2022-11-11T00:40:52;15.00;;;9.00;;
48403;SDS011;34202;52.536;6.042;2022-11-11T00:45:52;14.10;;;7.90;;
48403;SDS011;34202;52.536;6.042;2022-11-11T00:50:53;15.70;;;9.40;;
48403;SDS011;34202;52.536;6.042;2022-11-11T00:55:59;20.00;;;10.70;;
48403;SDS011;34202;52.536;6.042;2022-11-11T01:00:59;13.40;;;9.30;;
48403;SDS011;34202;52.536;6.042;2022-11-11T01:06:00;12.20;;;10.30;;
48403;SDS011;34202;52.536;6.042;2022-11-11T01:11:02;21.60;;;10.90;;
48403;SDS011;34202;52.536;6.042;2022-11-11T01:16:03;24.10;;;11.90;;
48403;SDS011;34202;52.536;6.042;2022-11-11T01:21:13;16.70;;;11.90;;
48403;SDS011;34202;52.536;6.042;2022-11-11T01:31:26;15.20;;;12.70;;
48403;SDS011;34202;52.536;6.042;2022-11-11T01:36:27;20.70;;;15.00;;
48403;SDS011;34202;52.536;6.042;2022-11-11T01:41:29;25.10;;;15.20;;
48403;SDS011;34202;52.536;6.042;2022-11-11T01:51:36;26.30;;;15.10;;
48403;SDS011;34202;52.536;6.042;2022-11-11T02:01:43;25.90;;;16.30;;
48403;SDS011;34202;52.536;6.042;2022-11-11T02:06:44;25.70;;;16.70;;
48403;SDS011;34202;52.536;6.042;2022-11-11T02:11:47;25.70;;;16.90;;
48403;SDS011;34202;52.536;6.042;2022-11-11T02:17:09;30.00;;;18.10;;
48403;SDS011;34202;52.536;6.042;2022-11-11T02:22:18;22.30;;;17.00;;
48403;SDS011;34202;52.536;6.042;2022-11-11T02:27:25;24.40;;;19.40;;
48403;SDS011;34202;52.536;6.042;2022-11-11T02:32:29;28.70;;;18.30;;
48403;SDS011;34202;52.536;6.042;2022-11-11T02:37:29;24.70;;;19.80;;
48403;SDS011;34202;52.536;6.042;2022-11-11T02:42:29;30.30;;;18.20;;
48403;SDS011;34202;52.536;6.042;2022-11-11T02:47:33;42.40;;;23.00;;
48403;SDS011;34202;52.536;6.042;2022-11-11T02:52:33;35.60;;;22.40;;
48403;SDS011;34202;52.536;6.042;2022-11-11T02:57:34;25.40;;;19.20;;
48403;SDS011;34202;52.536;6.042;2022-11-11T03:02:35;26.90;;;20.00;;
48403;SDS011;34202;52.536;6.042;2022-11-11T03:07:35;33.70;;;21.20;;
48403;SDS011;34202;52.536;6.042;2022-11-11T03:12:35;28.50;;;21.00;;
48403;SDS011;34202;52.536;6.042;2022-11-11T03:17:36;31.00;;;22.50;;
48403;SDS011;34202;52.536;6.042;2022-11-11T03:22:39;32.20;;;22.40;;
48403;SDS011;34202;52.536;6.042;2022-11-11T03:27:40;30.40;;;18.90;;
48403;SDS011;34202;52.536;6.042;2022-11-11T03:32:42;29.00;;;21.60;;
48403;SDS011;34202;52.536;6.042;2022-11-11T03:37:42;38.40;;;22.90;;
48403;SDS011;34202;52.536;6.042;2022-11-11T03:43:01;33.80;;;23.30;;
48403;SDS011;34202;52.536;6.042;2022-11-11T03:48:02;35.40;;;23.30;;
48403;SDS011;34202;52.536;6.042;2022-11-11T03:53:04;34.70;;;23.80;;
48403;SDS011;34202;52.536;6.042;2022-11-11T03:58:05;27.10;;;20.80;;
48403;SDS011;34202;52.536;6.042;2022-11-11T04:08:28;34.30;;;25.20;;
48403;SDS011;34202;52.536;6.042;2022-11-11T04:13:47;37.20;;;23.50;;
48403;SDS011;34202;52.536;6.042;2022-11-11T04:19:18;32.30;;;23.60;;
48403;SDS011;34202;52.536;6.042;2022-11-11T04:24:37;30.60;;;22.90;;
48403;SDS011;34202;52.536;6.042;2022-11-11T04:29:56;36.30;;;23.30;;
48403;SDS011;34202;52.536;6.042;2022-11-11T04:34:57;35.50;;;25.30;;
48403;SDS011;34202;52.536;6.042;2022-11-11T04:40:03;33.40;;;23.30;;
48403;SDS011;34202;52.536;6.042;2022-11-11T04:45:23;31.30;;;21.20;;
48403;SDS011;34202;52.536;6.042;2022-11-11T04:50:36;30.20;;;22.00;;
48403;SDS011;34202;52.536;6.042;2022-11-11T04:55:38;35.80;;;23.50;;
48403;SDS011;34202;52.536;6.042;2022-11-11T05:00:58;33.00;;;21.60;;
48403;SDS011;34202;52.536;6.042;2022-11-11T05:05:59;31.30;;;21.30;;
48403;SDS011;34202;52.536;6.042;2022-11-11T05:11:19;34.90;;;22.60;;
48403;SDS011;34202;52.536;6.042;2022-11-11T05:16:22;32.20;;;21.80;;
48403;SDS011;34202;52.536;6.042;2022-11-11T05:21:44;33.00;;;21.90;;
48403;SDS011;34202;52.536;6.042;2022-11-11T05:26:45;29.90;;;21.30;;
48403;SDS011;34202;52.536;6.042;2022-11-11T05:31:45;28.30;;;19.30;;
48403;SDS011;34202;52.536;6.042;2022-11-11T05:36:46;30.10;;;20.40;;
48403;SDS011;34202;52.536;6.042;2022-11-11T05:41:46;31.20;;;22.30;;
48403;SDS011;34202;52.536;6.042;2022-11-11T05:46:46;22.60;;;18.90;;
48403;SDS011;34202;52.536;6.042;2022-11-11T05:51:46;27.10;;;20.10;;
48403;SDS011;34202;52.536;6.042;2022-11-11T05:56:47;29.40;;;20.70;;
48403;SDS011;34202;52.536;6.042;2022-11-11T06:01:47;26.70;;;18.80;;
48403;SDS011;34202;52.536;6.042;2022-11-11T06:06:48;27.20;;;18.30;;
48403;SDS011;34202;52.536;6.042;2022-11-11T06:11:48;25.90;;;19.10;;
48403;SDS011;34202;52.536;6.042;2022-11-11T06:16:48;23.90;;;16.30;;
48403;SDS011;34202;52.536;6.042;2022-11-11T06:21:49;25.80;;;20.00;;
48403;SDS011;34202;52.536;6.042;2022-11-11T06:26:59;26.60;;;18.30;;
48403;SDS011;34202;52.536;6.042;2022-11-11T06:31:59;28.70;;;19.40;;
48403;SDS011;34202;52.536;6.042;2022-11-11T06:37:00;23.70;;;18.50;;
48403;SDS011;34202;52.536;6.042;2022-11-11T06:42:00;29.50;;;19.90;;
48403;SDS011;34202;52.536;6.042;2022-11-11T06:47:00;26.10;;;20.90;;
48403;SDS011;34202;52.536;6.042;2022-11-11T06:52:01;27.30;;;18.60;;
48403;SDS011;34202;52.536;6.042;2022-11-11T06:57:01;23.50;;;16.70;;
48403;SDS011;34202;52.536;6.042;2022-11-11T07:02:01;20.50;;;18.30;;
48403;SDS011;34202;52.536;6.042;2022-11-11T07:07:02;22.00;;;17.00;;
48403;SDS011;34202;52.536;6.042;2022-11-11T07:12:02;26.20;;;16.60;;
48403;SDS011;34202;52.536;6.042;2022-11-11T07:17:03;29.30;;;18.60;;
48403;SDS011;34202;52.536;6.042;2022-11-11T07:22:04;27.10;;;15.60;;
48403;SDS011;34202;52.536;6.042;2022-11-11T07:27:04;22.90;;;16.20;;
48403;SDS011;34202;52.536;6.042;2022-11-11T07:32:04;28.40;;;16.10;;
48403;SDS011;34202;52.536;6.042;2022-11-11T07:37:05;21.50;;;16.00;;
48403;SDS011;34202;52.536;6.042;2022-11-11T07:42:05;23.40;;;14.90;;
48403;SDS011;34202;52.536;6.042;2022-11-11T07:47:05;22.20;;;16.40;;
48403;SDS011;34202;52.536;6.042;2022-11-11T07:52:06;22.10;;;15.50;;
48403;SDS011;34202;52.536;6.042;2022-11-11T07:57:06;24.80;;;16.40;;
48403;SDS011;34202;52.536;6.042;2022-11-11T08:02:10;28.10;;;16.80;;
48403;SDS011;34202;52.536;6.042;2022-11-11T08:07:11;17.60;;;13.90;;
48403;SDS011;34202;52.536;6.042;2022-11-11T08:12:11;20.80;;;15.00;;
48403;SDS011;34202;52.536;6.042;2022-11-11T08:17:35;19.70;;;14.70;;
48403;SDS011;34202;52.536;6.042;2022-11-11T08:27:40;15.00;;;12.60;;
48403;SDS011;34202;52.536;6.042;2022-11-11T08:32:41;16.30;;;13.60;;
48403;SDS011;34202;52.536;6.042;2022-11-11T08:37:41;22.80;;;14.00;;
48403;SDS011;34202;52.536;6.042;2022-11-11T08:42:41;20.70;;;13.40;;
48403;SDS011;34202;52.536;6.042;2022-11-11T08:47:43;18.20;;;12.90;;
48403;SDS011;34202;52.536;6.042;2022-11-11T08:52:47;19.30;;;13.20;;
48403;SDS011;34202;52.536;6.042;2022-11-11T08:57:55;15.80;;;13.10;;
48403;SDS011;34202;52.536;6.042;2022-11-11T09:03:00;17.90;;;11.90;;
48403;SDS011;34202;52.536;6.042;2022-11-11T09:08:03;21.50;;;14.10;;
48403;SDS011;34202;52.536;6.042;2022-11-11T09:13:06;19.10;;;13.30;;
48403;SDS011;34202;52.536;6.042;2022-11-11T09:18:06;17.80;;;13.10;;
48403;SDS011;34202;52.536;6.042;2022-11-11T09:23:08;18.70;;;11.20;;
48403;SDS011;34202;52.536;6.042;2022-11-11T09:28:08;14.40;;;11.00;;
48403;SDS011;34202;52.536;6.042;2022-11-11T09:33:08;15.90;;;10.60;;
48403;SDS011;34202;52.536;6.042;2022-11-11T09:38:11;13.10;;;10.10;;
48403;SDS011;34202;52.536;6.042;2022-11-11T09:43:17;14.10;;;11.10;;
48403;SDS011;34202;52.536;6.042;2022-11-11T09:53:41;13.70;;;10.90;;
48403;SDS011;34202;52.536;6.042;2022-11-11T09:58:48;14.90;;;10.20;;
48403;SDS011;34202;52.536;6.042;2022-11-11T10:03:58;16.60;;;10.30;;
48403;SDS011;34202;52.536;6.042;2022-11-11T10:09:06;15.50;;;10.60;;
48403;SDS011;34202;52.536;6.042;2022-11-11T10:14:16;13.80;;;10.10;;
48403;SDS011;34202;52.536;6.042;2022-11-11T10:24:42;12.00;;;10.00;;
48403;SDS011;34202;52.536;6.042;2022-11-11T10:29:49;14.10;;;9.40;;
48403;SDS011;34202;52.536;6.042;2022-11-11T10:34:50;14.20;;;9.20;;
48403;SDS011;34202;52.536;6.042;2022-11-11T10:51:01;12.90;;;9.70;;
48403;SDS011;34202;52.536;6.042;2022-11-11T11:01:35;10.50;;;9.40;;
48403;SDS011;34202;52.536;6.042;2022-11-11T11:06:41;15.80;;;10.00;;
48403;SDS011;34202;52.536;6.042;2022-11-11T11:17:04;15.80;;;9.60;;
48403;SDS011;34202;52.536;6.042;2022-11-11T11:22:12;15.10;;;9.90;;
48403;SDS011;34202;52.536;6.042;2022-11-11T11:27:13;11.10;;;9.40;;
48403;SDS011;34202;52.536;6.042;2022-11-11T11:37:31;13.40;;;9.40;;
48403;SDS011;34202;52.536;6.042;2022-11-11T11:42:48;12.40;;;9.50;;
48403;SDS011;34202;52.536;6.042;2022-11-11T12:19:27;14.40;;;8.70;;
48403;SDS011;34202;52.536;6.042;2022-11-11T12:30:01;11.70;;;9.40;;
48403;SDS011;34202;52.536;6.042;2022-11-11T12:41:04;11.50;;;8.80;;
48403;SDS011;34202;52.536;6.042;2022-11-11T12:50:59;12.70;;;8.80;;
48403;SDS011;34202;52.536;6.042;2022-11-11T13:02:30;11.30;;;9.40;;
48403;SDS011;34202;52.536;6.042;2022-11-11T13:07:27;10.30;;;7.40;;
48403;SDS011;34202;52.536;6.042;2022-11-11T13:12:42;11.00;;;8.00;;
